sensor_id;sensor_type;location;lat;lon;timestamp;pressure;altitude;pressure_sealevel;temperature;humidity
45078;BME280;60508;42.622;25.416;2023-07-13T00:01:05;96945.03;;;24.66;61.86
45078;BME280;60508;42.622;25.416;2023-07-13T00:03:32;96937.78;;;24.53;62.52
45078;BME280;60508;42.622;25.416;2023-07-13T00:06:01;96938.25;;;24.55;62.41
45078;BME280;60508;42.622;25.416;2023-07-13T00:08:35;96927.78;;;24.48;62.51
45078;BME280;60508;42.622;25.416;2023-07-13T00:11:03;96926.38;;;24.42;62.62
45078;BME280;60508;42.622;25.416;2023-07-13T00:13:30;96932.31;;;24.44;62.66
45078;BME280;60508;42.622;25.416;2023-07-13T00:15:59;96921.34;;;24.44;62.39
45078;BME280;60508;42.622;25.416;2023-07-13T00:18:32;96927.13;;;24.60;61.89
45078;BME280;60508;42.622;25.416;2023-07-13T00:20:59;96912.31;;;24.43;62.22
45078;BME280;60508;42.622;25.416;2023-07-13T00:23:36;96926.63;;;24.49;62.77
45078;BME280;60508;42.622;25.416;2023-07-13T00:26:06;96926.38;;;24.33;63.90
45078;BME280;60508;42.622;25.416;2023-07-13T00:28:50;96921.00;;;24.07;65.08
45078;BME280;60508;42.622;25.416;2023-07-13T00:31:17;96919.09;;;23.99;65.49
45078;BME280;60508;42.622;25.416;2023-07-13T00:33:43;96916.84;;;23.92;65.65
45078;BME280;60508;42.622;25.416;2023-07-13T00:36:10;96916.34;;;23.81;65.77
45078;BME280;60508;42.622;25.416;2023-07-13T00:38:53;96921.22;;;23.84;66.00
45078;BME280;60508;42.622;25.416;2023-07-13T00:41:20;96918.63;;;23.88;66.03
45078;BME280;60508;42.622;25.416;2023-07-13T00:43:47;96908.28;;;23.94;65.59
45078;BME280;60508;42.622;25.416;2023-07-13T00:46:26;96911.47;;;24.04;65.12
45078;BME280;60508;42.622;25.416;2023-07-13T00:49:05;96908.06;;;24.08;64.37
45078;BME280;60508;42.622;25.416;2023-07-13T00:51:38;96906.91;;;24.17;64.19
45078;BME280;60508;42.622;25.416;2023-07-13T00:54:19;96913.09;;;24.14;64.18
45078;BME280;60508;42.622;25.416;2023-07-13T00:56:52;96913.09;;;24.05;64.52
45078;BME280;60508;42.622;25.416;2023-07-13T00:59:21;96908.44;;;23.97;64.32
45078;BME280;60508;42.622;25.416;2023-07-13T01:02:03;96903.59;;;24.03;64.25
45078;BME280;60508;42.622;25.416;2023-07-13T01:04:30;96900.63;;;24.17;63.88
45078;BME280;60508;42.622;25.416;2023-07-13T01:06:57;96897.53;;;24.18;63.94
45078;BME280;60508;42.622;25.416;2023-07-13T01:09:26;96896.44;;;24.19;63.88
45078;BME280;60508;42.622;25.416;2023-07-13T01:11:53;96900.94;;;24.15;63.99
45078;BME280;60508;42.622;25.416;2023-07-13T01:14:40;96906.13;;;24.17;63.82
45078;BME280;60508;42.622;25.416;2023-07-13T01:17:10;96898.50;;;24.22;63.55
45078;BME280;60508;42.622;25.416;2023-07-13T01:22:16;96890.88;;;24.28;63.49
45078;BME280;60508;42.622;25.416;2023-07-13T01:24:46;96896.38;;;24.28;63.48
45078;BME280;60508;42.622;25.416;2023-07-13T01:27:23;96899.25;;;24.32;62.88
45078;BME280;60508;42.622;25.416;2023-07-13T01:29:52;96891.03;;;24.32;62.95
45078;BME280;60508;42.622;25.416;2023-07-13T01:32:22;96885.13;;;24.12;63.48
45078;BME280;60508;42.622;25.416;2023-07-13T01:34:51;96887.97;;;23.77;65.16
45078;BME280;60508;42.622;25.416;2023-07-13T01:37:21;96898.63;;;23.79;65.46
45078;BME280;60508;42.622;25.416;2023-07-13T01:39:54;96886.69;;;23.83;65.13
45078;BME280;60508;42.622;25.416;2023-07-13T01:42:21;96888.25;;;23.93;65.01
45078;BME280;60508;42.622;25.416;2023-07-13T01:44:48;96888.25;;;23.93;64.78
45078;BME280;60508;42.622;25.416;2023-07-13T01:47:15;96889.75;;;23.91;65.00
45078;BME280;60508;42.622;25.416;2023-07-13T01:49:43;96890.88;;;23.81;65.40
45078;BME280;60508;42.622;25.416;2023-07-13T01:52:20;96888.31;;;23.67;66.39
45078;BME280;60508;42.622;25.416;2023-07-13T01:54:47;96880.63;;;23.51;67.17
45078;BME280;60508;42.622;25.416;2023-07-13T01:57:13;96882.41;;;23.39;67.81
45078;BME280;60508;42.622;25.416;2023-07-13T01:59:46;96886.13;;;23.34;68.58
45078;BME280;60508;42.622;25.416;2023-07-13T02:02:13;96887.88;;;23.30;68.72
45078;BME280;60508;42.622;25.416;2023-07-13T02:04:40;96889.34;;;23.19;69.52
45078;BME280;60508;42.622;25.416;2023-07-13T02:07:08;96883.06;;;23.18;69.69
45078;BME280;60508;42.622;25.416;2023-07-13T02:09:35;96883.69;;;23.15;69.76
45078;BME280;60508;42.622;25.416;2023-07-13T02:12:09;96873.22;;;23.17;69.06
45078;BME280;60508;42.622;25.416;2023-07-13T02:14:36;96884.34;;;23.29;68.65
45078;BME280;60508;42.622;25.416;2023-07-13T02:17:03;96882.38;;;23.30;68.69
45078;BME280;60508;42.622;25.416;2023-07-13T02:19:30;96882.88;;;23.23;68.82
45078;BME280;60508;42.622;25.416;2023-07-13T02:21:57;96889.19;;;23.32;68.67
45078;BME280;60508;42.622;25.416;2023-07-13T02:24:24;96890.31;;;23.40;68.54
45078;BME280;60508;42.622;25.416;2023-07-13T02:26:50;96888.50;;;23.44;68.24
45078;BME280;60508;42.622;25.416;2023-07-13T02:29:17;96883.84;;;23.36;68.22
45078;BME280;60508;42.622;25.416;2023-07-13T02:31:53;96887.06;;;23.47;67.87
45078;BME280;60508;42.622;25.416;2023-07-13T02:34:21;96887.69;;;23.52;67.54
45078;BME280;60508;42.622;25.416;2023-07-13T02:36:48;96887.50;;;23.58;67.55
45078;BME280;60508;42.622;25.416;2023-07-13T02:39:15;96889.94;;;23.59;66.82
45078;BME280;60508;42.622;25.416;2023-07-13T02:41:42;96890.25;;;23.58;66.78
45078;BME280;60508;42.622;25.416;2023-07-13T02:44:08;96886.69;;;23.75;65.73
45078;BME280;60508;42.622;25.416;2023-07-13T02:46:42;96897.34;;;23.76;65.24
45078;BME280;60508;42.622;25.416;2023-07-13T02:49:09;96892.66;;;23.77;65.37
45078;BME280;60508;42.622;25.416;2023-07-13T02:51:36;96897.84;;;23.69;65.16
45078;BME280;60508;42.622;25.416;2023-07-13T02:54:03;96900.75;;;23.64;65.40
45078;BME280;60508;42.622;25.416;2023-07-13T02:56:32;96898.34;;;23.63;66.04
45078;BME280;60508;42.622;25.416;2023-07-13T02:58:59;96899.59;;;23.65;65.90
45078;BME280;60508;42.622;25.416;2023-07-13T03:01:27;96902.66;;;23.64;65.69
45078;BME280;60508;42.622;25.416;2023-07-13T03:03:53;96899.31;;;23.41;66.69
45078;BME280;60508;42.622;25.416;2023-07-13T03:06:20;96895.47;;;23.33;67.33
45078;BME280;60508;42.622;25.416;2023-07-13T03:08:52;96904.84;;;23.32;67.60
45078;BME280;60508;42.622;25.416;2023-07-13T03:11:20;96914.97;;;23.23;68.44
45078;BME280;60508;42.622;25.416;2023-07-13T03:14:09;96912.91;;;23.11;69.05
45078;BME280;60508;42.622;25.416;2023-07-13T03:16:38;96908.06;;;23.08;69.61
45078;BME280;60508;42.622;25.416;2023-07-13T03:19:05;96916.75;;;23.10;69.85
45078;BME280;60508;42.622;25.416;2023-07-13T03:21:34;96906.41;;;23.07;69.94
45078;BME280;60508;42.622;25.416;2023-07-13T03:24:10;96906.25;;;23.12;69.15
45078;BME280;60508;42.622;25.416;2023-07-13T03:26:37;96904.31;;;23.12;68.76
45078;BME280;60508;42.622;25.416;2023-07-13T03:29:05;96910.47;;;23.18;68.25
45078;BME280;60508;42.622;25.416;2023-07-13T03:31:34;96904.19;;;23.18;68.04
45078;BME280;60508;42.622;25.416;2023-07-13T03:34:02;96918.38;;;23.20;68.05
45078;BME280;60508;42.622;25.416;2023-07-13T03:36:31;96914.03;;;23.27;67.85
45078;BME280;60508;42.622;25.416;2023-07-13T03:39:10;96910.78;;;23.34;67.86
45078;BME280;60508;42.622;25.416;2023-07-13T03:41:49;96904.50;;;23.42;67.42
45078;BME280;60508;42.622;25.416;2023-07-13T03:44:27;96903.53;;;23.47;67.24
45078;BME280;60508;42.622;25.416;2023-07-13T03:46:56;96901.91;;;23.55;67.11
45078;BME280;60508;42.622;25.416;2023-07-13T03:49:23;96906.69;;;23.75;66.42
45078;BME280;60508;42.622;25.416;2023-07-13T03:51:51;96915.09;;;23.87;65.62
45078;BME280;60508;42.622;25.416;2023-07-13T03:54:25;96910.69;;;24.04;65.20
45078;BME280;60508;42.622;25.416;2023-07-13T03:56:51;96899.50;;;24.09;64.61
45078;BME280;60508;42.622;25.416;2023-07-13T03:59:20;96907.72;;;24.18;64.55
45078;BME280;60508;42.622;25.416;2023-07-13T04:01:48;96904.28;;;24.30;63.63
45078;BME280;60508;42.622;25.416;2023-07-13T04:04:15;96906.03;;;24.34;64.60
45078;BME280;60508;42.622;25.416;2023-07-13T04:06:48;96908.72;;;24.13;65.41
45078;BME280;60508;42.622;25.416;2023-07-13T04:09:15;96921.00;;;24.07;65.94
45078;BME280;60508;42.622;25.416;2023-07-13T04:11:42;96916.34;;;23.99;66.14
45078;BME280;60508;42.622;25.416;2023-07-13T04:14:09;96913.13;;;23.97;65.85
45078;BME280;60508;42.622;25.416;2023-07-13T04:16:36;96915.22;;;23.91;65.53
45078;BME280;60508;42.622;25.416;2023-07-13T04:19:10;96911.03;;;23.85;64.53
45078;BME280;60508;42.622;25.416;2023-07-13T04:21:37;96918.44;;;23.93;64.12
45078;BME280;60508;42.622;25.416;2023-07-13T04:24:03;96913.78;;;23.94;64.37
45078;BME280;60508;42.622;25.416;2023-07-13T04:26:30;96922.13;;;24.06;64.02
45078;BME280;60508;42.622;25.416;2023-07-13T04:29:15;96919.38;;;24.15;63.62
45078;BME280;60508;42.622;25.416;2023-07-13T04:31:41;96923.88;;;24.19;62.92
45078;BME280;60508;42.622;25.416;2023-07-13T04:34:08;96923.38;;;24.26;62.47
45078;BME280;60508;42.622;25.416;2023-07-13T04:36:35;96927.69;;;24.27;62.32
45078;BME280;60508;42.622;25.416;2023-07-13T04:39:06;96938.69;;;24.27;62.46
45078;BME280;60508;42.622;25.416;2023-07-13T04:41:33;96929.31;;;24.37;62.45
45078;BME280;60508;42.622;25.416;2023-07-13T04:44:00;96928.59;;;24.49;62.61
45078;BME280;60508;42.622;25.416;2023-07-13T04:46:27;96924.03;;;24.53;62.23
45078;BME280;60508;42.622;25.416;2023-07-13T04:49:00;96930.28;;;24.71;61.52
45078;BME280;60508;42.622;25.416;2023-07-13T04:51:27;96935.72;;;24.79;61.63
45078;BME280;60508;42.622;25.416;2023-07-13T04:53:54;96928.41;;;24.84;62.32
45078;BME280;60508;42.622;25.416;2023-07-13T04:56:21;96934.66;;;24.93;62.49
45078;BME280;60508;42.622;25.416;2023-07-13T04:58:48;96942.38;;;25.00;62.15
45078;BME280;60508;42.622;25.416;2023-07-13T05:01:15;96943.75;;;25.14;61.89
45078;BME280;60508;42.622;25.416;2023-07-13T05:03:41;96944.34;;;25.20;61.93
45078;BME280;60508;42.622;25.416;2023-07-13T05:06:16;96949.00;;;25.28;61.70
45078;BME280;60508;42.622;25.416;2023-07-13T05:08:43;96940.94;;;25.23;61.73
45078;BME280;60508;42.622;25.416;2023-07-13T05:11:09;96939.75;;;25.33;60.57
45078;BME280;60508;42.622;25.416;2023-07-13T05:13:36;96941.75;;;25.45;59.84
45078;BME280;60508;42.622;25.416;2023-07-13T05:16:04;96940.19;;;25.56;59.08
45078;BME280;60508;42.622;25.416;2023-07-13T05:18:38;96946.56;;;25.69;58.29
45078;BME280;60508;42.622;25.416;2023-07-13T05:21:08;96950.03;;;25.78;58.53
45078;BME280;60508;42.622;25.416;2023-07-13T05:23:36;96943.75;;;25.90;58.55
45078;BME280;60508;42.622;25.416;2023-07-13T05:26:04;96939.19;;;25.94;58.14
45078;BME280;60508;42.622;25.416;2023-07-13T05:28:39;96944.34;;;25.96;58.37
45078;BME280;60508;42.622;25.416;2023-07-13T05:31:09;96943.56;;;25.95;58.69
45078;BME280;60508;42.622;25.416;2023-07-13T05:33:36;96948.53;;;26.02;58.46
45078;BME280;60508;42.622;25.416;2023-07-13T05:36:03;96942.81;;;26.07;59.03
45078;BME280;60508;42.622;25.416;2023-07-13T05:38:30;96951.09;;;26.19;58.76
45078;BME280;60508;42.622;25.416;2023-07-13T05:40:57;96958.56;;;26.31;58.36
45078;BME280;60508;42.622;25.416;2023-07-13T05:43:24;96956.19;;;26.42;58.39
45078;BME280;60508;42.622;25.416;2023-07-13T05:45:53;96961.13;;;26.49;58.50
45078;BME280;60508;42.622;25.416;2023-07-13T05:48:27;96960.56;;;26.55;58.77
45078;BME280;60508;42.622;25.416;2023-07-13T05:50:54;96964.84;;;26.65;58.50
45078;BME280;60508;42.622;25.416;2023-07-13T05:53:21;96967.94;;;26.76;58.41
45078;BME280;60508;42.622;25.416;2023-07-13T05:55:47;96966.09;;;26.92;57.56
45078;BME280;60508;42.622;25.416;2023-07-13T05:58:17;96964.13;;;27.05;55.71
45078;BME280;60508;42.622;25.416;2023-07-13T06:00:45;96965.00;;;27.22;52.62
45078;BME280;60508;42.622;25.416;2023-07-13T06:03:12;96966.63;;;27.35;51.83
45078;BME280;60508;42.622;25.416;2023-07-13T06:05:39;96963.72;;;27.44;51.74
45078;BME280;60508;42.622;25.416;2023-07-13T06:08:07;96971.28;;;27.47;51.95
45078;BME280;60508;42.622;25.416;2023-07-13T06:10:34;96959.69;;;27.41;52.60
45078;BME280;60508;42.622;25.416;2023-07-13T06:13:02;96966.50;;;27.31;53.10
45078;BME280;60508;42.622;25.416;2023-07-13T06:15:29;96963.59;;;27.40;53.17
45078;BME280;60508;42.622;25.416;2023-07-13T06:17:56;96963.56;;;27.53;52.57
45078;BME280;60508;42.622;25.416;2023-07-13T06:20:23;96972.41;;;27.58;53.01
45078;BME280;60508;42.622;25.416;2023-07-13T06:22:59;96967.88;;;27.66;51.40
45078;BME280;60508;42.622;25.416;2023-07-13T06:25:26;96962.28;;;27.62;51.31
45078;BME280;60508;42.622;25.416;2023-07-13T06:27:53;96971.81;;;27.65;50.80
45078;BME280;60508;42.622;25.416;2023-07-13T06:30:27;96967.28;;;27.73;51.62
45078;BME280;60508;42.622;25.416;2023-07-13T06:32:54;96961.28;;;27.83;51.67
45078;BME280;60508;42.622;25.416;2023-07-13T06:35:20;96958.16;;;27.84;51.69
45078;BME280;60508;42.622;25.416;2023-07-13T06:37:48;96959.97;;;27.93;51.31
45078;BME280;60508;42.622;25.416;2023-07-13T06:40:15;96955.81;;;27.99;51.47
45078;BME280;60508;42.622;25.416;2023-07-13T06:42:50;96959.03;;;28.01;49.92
45078;BME280;60508;42.622;25.416;2023-07-13T06:45:17;96946.84;;;28.02;49.78
45078;BME280;60508;42.622;25.416;2023-07-13T06:47:44;96946.94;;;28.05;49.53
45078;BME280;60508;42.622;25.416;2023-07-13T06:50:10;96947.44;;;28.11;49.53
45078;BME280;60508;42.622;25.416;2023-07-13T06:52:38;96944.97;;;28.22;49.64
45078;BME280;60508;42.622;25.416;2023-07-13T06:55:13;96952.09;;;28.39;49.88
45078;BME280;60508;42.622;25.416;2023-07-13T06:57:40;96955.50;;;28.48;50.34
45078;BME280;60508;42.622;25.416;2023-07-13T07:00:08;96945.00;;;28.54;49.26
45078;BME280;60508;42.622;25.416;2023-07-13T07:02:36;96947.66;;;28.66;49.33
45078;BME280;60508;42.622;25.416;2023-07-13T07:05:04;96956.06;;;28.70;49.18
45078;BME280;60508;42.622;25.416;2023-07-13T07:07:36;96949.56;;;28.78;49.59
45078;BME280;60508;42.622;25.416;2023-07-13T07:10:03;96943.75;;;28.83;48.81
45078;BME280;60508;42.622;25.416;2023-07-13T07:12:30;96948.28;;;28.91;48.32
45078;BME280;60508;42.622;25.416;2023-07-13T07:14:57;96951.66;;;29.01;47.30
45078;BME280;60508;42.622;25.416;2023-07-13T07:17:32;96945.41;;;29.04;47.18
45078;BME280;60508;42.622;25.416;2023-07-13T07:19:59;96950.78;;;29.16;47.69
45078;BME280;60508;42.622;25.416;2023-07-13T07:22:26;96955.34;;;29.24;46.96
45078;BME280;60508;42.622;25.416;2023-07-13T07:24:54;96951.56;;;29.32;47.47
45078;BME280;60508;42.622;25.416;2023-07-13T07:27:20;96954.28;;;29.48;45.87
45078;BME280;60508;42.622;25.416;2023-07-13T07:29:55;96951.75;;;29.59;45.13
45078;BME280;60508;42.622;25.416;2023-07-13T07:32:23;96945.78;;;29.57;45.30
45078;BME280;60508;42.622;25.416;2023-07-13T07:34:50;96945.34;;;29.75;44.13
45078;BME280;60508;42.622;25.416;2023-07-13T07:37:20;96943.16;;;29.84;44.35
45078;BME280;60508;42.622;25.416;2023-07-13T07:39:47;96942.56;;;29.94;43.80
45078;BME280;60508;42.622;25.416;2023-07-13T07:42:19;96940.28;;;30.00;43.20
45078;BME280;60508;42.622;25.416;2023-07-13T07:44:46;96931.06;;;30.15;42.87
45078;BME280;60508;42.622;25.416;2023-07-13T07:47:12;96936.69;;;30.19;42.65
45078;BME280;60508;42.622;25.416;2023-07-13T07:49:46;96920.41;;;30.17;42.73
45078;BME280;60508;42.622;25.416;2023-07-13T07:52:16;96926.16;;;30.28;42.33
45078;BME280;60508;42.622;25.416;2023-07-13T07:54:43;96928.97;;;30.32;42.43
45078;BME280;60508;42.622;25.416;2023-07-13T07:57:09;96941.75;;;30.36;42.72
45078;BME280;60508;42.622;25.416;2023-07-13T07:59:37;96940.03;;;30.51;43.07
45078;BME280;60508;42.622;25.416;2023-07-13T08:02:04;96938.28;;;30.66;41.96
45078;BME280;60508;42.622;25.416;2023-07-13T08:04:37;96934.13;;;30.80;41.56
45078;BME280;60508;42.622;25.416;2023-07-13T08:07:05;96920.22;;;30.76;41.19
45078;BME280;60508;42.622;25.416;2023-07-13T08:09:34;96935.84;;;30.88;40.67
45078;BME280;60508;42.622;25.416;2023-07-13T08:12:00;96936.03;;;30.99;41.74
45078;BME280;60508;42.622;25.416;2023-07-13T08:14:27;96925.75;;;30.99;41.17
45078;BME280;60508;42.622;25.416;2023-07-13T08:17:02;96942.53;;;31.10;41.68
45078;BME280;60508;42.622;25.416;2023-07-13T08:19:32;96933.19;;;31.22;39.07
45078;BME280;60508;42.622;25.416;2023-07-13T08:21:58;96934.94;;;31.34;40.20
45078;BME280;60508;42.622;25.416;2023-07-13T08:24:33;96933.06;;;31.41;39.56
45078;BME280;60508;42.622;25.416;2023-07-13T08:27:00;96930.34;;;31.48;37.99
45078;BME280;60508;42.622;25.416;2023-07-13T08:29:28;96938.44;;;31.57;36.91
45078;BME280;60508;42.622;25.416;2023-07-13T08:31:54;96938.50;;;31.64;37.66
45078;BME280;60508;42.622;25.416;2023-07-13T08:34:22;96921.88;;;31.68;38.19
45078;BME280;60508;42.622;25.416;2023-07-13T08:36:48;96934.28;;;31.78;38.27
45078;BME280;60508;42.622;25.416;2023-07-13T08:39:23;96938.38;;;31.88;37.36
45078;BME280;60508;42.622;25.416;2023-07-13T08:41:57;96938.81;;;31.90;38.37
45078;BME280;60508;42.622;25.416;2023-07-13T08:44:39;96935.34;;;32.00;37.90
45078;BME280;60508;42.622;25.416;2023-07-13T08:47:09;96930.63;;;32.04;39.17
45078;BME280;60508;42.622;25.416;2023-07-13T08:49:37;96931.94;;;32.14;38.11
45078;BME280;60508;42.622;25.416;2023-07-13T08:52:11;96930.47;;;32.27;37.21
45078;BME280;60508;42.622;25.416;2023-07-13T08:54:45;96929.00;;;32.40;36.57
45078;BME280;60508;42.622;25.416;2023-07-13T08:57:18;96921.50;;;32.45;35.93
45078;BME280;60508;42.622;25.416;2023-07-13T08:59:46;96925.84;;;32.46;35.95
45078;BME280;60508;42.622;25.416;2023-07-13T09:02:23;96920.81;;;32.62;36.18
45078;BME280;60508;42.622;25.416;2023-07-13T09:05:00;96920.53;;;32.71;34.54
45078;BME280;60508;42.622;25.416;2023-07-13T09:10:21;96915.00;;;32.78;35.16
45078;BME280;60508;42.622;25.416;2023-07-13T09:13:22;96913.16;;;33.00;35.31
45078;BME280;60508;42.622;25.416;2023-07-13T09:15:52;96910.00;;;33.02;35.92
45078;BME280;60508;42.622;25.416;2023-07-13T09:23:47;96902.56;;;33.20;32.67
45078;BME280;60508;42.622;25.416;2023-07-13T09:26:19;96910.56;;;33.29;32.43
45078;BME280;60508;42.622;25.416;2023-07-13T09:28:58;96899.50;;;33.43;32.59
45078;BME280;60508;42.622;25.416;2023-07-13T09:31:34;96891.97;;;33.62;32.36
45078;BME280;60508;42.622;25.416;2023-07-13T09:34:01;96895.56;;;33.59;31.55
45078;BME280;60508;42.622;25.416;2023-07-13T09:36:31;96895.16;;;33.60;32.06
45078;BME280;60508;42.622;25.416;2023-07-13T09:44:13;96886.91;;;33.89;31.39
45078;BME280;60508;42.622;25.416;2023-07-13T09:46:52;96880.16;;;34.01;32.00
45078;BME280;60508;42.622;25.416;2023-07-13T09:49:25;96875.78;;;34.11;31.58
45078;BME280;60508;42.622;25.416;2023-07-13T09:52:05;96861.84;;;34.11;31.50
45078;BME280;60508;42.622;25.416;2023-07-13T09:54:34;96862.31;;;34.27;31.56
45078;BME280;60508;42.622;25.416;2023-07-13T09:57:02;96873.06;;;34.32;31.89
45078;BME280;60508;42.622;25.416;2023-07-13T09:59:47;96872.63;;;34.59;31.76
45078;BME280;60508;42.622;25.416;2023-07-13T10:02:31;96869.84;;;34.63;31.08
45078;BME280;60508;42.622;25.416;2023-07-13T10:05:04;96869.44;;;34.61;31.53
45078;BME280;60508;42.622;25.416;2023-07-13T10:07:39;96869.84;;;34.66;31.84
45078;BME280;60508;42.622;25.416;2023-07-13T10:10:15;96871.81;;;34.62;32.49
45078;BME280;60508;42.622;25.416;2023-07-13T10:12:50;96863.47;;;34.55;33.19
45078;BME280;60508;42.622;25.416;2023-07-13T10:15:23;96865.03;;;34.67;32.92
45078;BME280;60508;42.622;25.416;2023-07-13T10:17:57;96871.03;;;34.80;33.18
45078;BME280;60508;42.622;25.416;2023-07-13T10:20:26;96868.25;;;34.87;33.17
45078;BME280;60508;42.622;25.416;2023-07-13T10:23:05;96858.25;;;34.89;32.94
45078;BME280;60508;42.622;25.416;2023-07-13T10:25:41;96861.84;;;34.90;32.67
45078;BME280;60508;42.622;25.416;2023-07-13T10:30:56;96852.63;;;35.04;31.83
45078;BME280;60508;42.622;25.416;2023-07-13T10:33:25;96850.22;;;35.02;31.67
45078;BME280;60508;42.622;25.416;2023-07-13T10:36:04;96851.03;;;34.99;30.49
45078;BME280;60508;42.622;25.416;2023-07-13T10:38:34;96848.59;;;35.19;32.51
45078;BME280;60508;42.622;25.416;2023-07-13T10:41:06;96848.56;;;35.23;32.37
45078;BME280;60508;42.622;25.416;2023-07-13T10:43:40;96857.38;;;35.25;32.70
45078;BME280;60508;42.622;25.416;2023-07-13T10:46:24;96850.16;;;35.20;31.93
45078;BME280;60508;42.622;25.416;2023-07-13T10:49:05;96837.41;;;35.19;32.49
45078;BME280;60508;42.622;25.416;2023-07-13T10:51:39;96843.31;;;35.46;33.20
45078;BME280;60508;42.622;25.416;2023-07-13T10:54:15;96841.16;;;35.72;32.71
45078;BME280;60508;42.622;25.416;2023-07-13T10:56:43;96834.09;;;35.50;31.33
45078;BME280;60508;42.622;25.416;2023-07-13T10:59:15;96843.25;;;35.54;32.16
45078;BME280;60508;42.622;25.416;2023-07-13T11:02:00;96844.06;;;35.58;31.78
45078;BME280;60508;42.622;25.416;2023-07-13T11:04:47;96838.78;;;35.74;31.35
45078;BME280;60508;42.622;25.416;2023-07-13T11:07:51;96834.38;;;35.80;31.57
45078;BME280;60508;42.622;25.416;2023-07-13T11:10:51;96843.03;;;35.97;30.21
45078;BME280;60508;42.622;25.416;2023-07-13T11:13:36;96839.94;;;35.84;30.40
45078;BME280;60508;42.622;25.416;2023-07-13T11:18:40;96829.66;;;36.23;30.08
45078;BME280;60508;42.622;25.416;2023-07-13T11:21:22;96827.97;;;36.36;29.31
45078;BME280;60508;42.622;25.416;2023-07-13T11:24:01;96824.34;;;36.39;29.46
45078;BME280;60508;42.622;25.416;2023-07-13T11:29:36;96830.66;;;36.47;28.32
45078;BME280;60508;42.622;25.416;2023-07-13T11:32:26;96822.50;;;36.63;26.68
45078;BME280;60508;42.622;25.416;2023-07-13T11:34:57;96821.13;;;36.82;27.36
45078;BME280;60508;42.622;25.416;2023-07-13T11:37:33;96816.22;;;36.94;26.67
45078;BME280;60508;42.622;25.416;2023-07-13T11:39:59;96826.63;;;36.89;26.86
45078;BME280;60508;42.622;25.416;2023-07-13T11:42:26;96816.22;;;36.90;26.40
45078;BME280;60508;42.622;25.416;2023-07-13T11:44:56;96811.75;;;36.96;25.86
45078;BME280;60508;42.622;25.416;2023-07-13T11:47:30;96808.13;;;36.99;26.27
45078;BME280;60508;42.622;25.416;2023-07-13T11:49:58;96806.09;;;37.00;26.68
45078;BME280;60508;42.622;25.416;2023-07-13T11:52:32;96810.97;;;36.96;26.36
45078;BME280;60508;42.622;25.416;2023-07-13T11:55:04;96802.81;;;37.08;25.98
45078;BME280;60508;42.622;25.416;2023-07-13T12:00:22;96804.59;;;36.91;25.48
45078;BME280;60508;42.622;25.416;2023-07-13T12:02:51;96805.91;;;36.83;26.14
45078;BME280;60508;42.622;25.416;2023-07-13T12:05:20;96806.00;;;37.10;25.41
45078;BME280;60508;42.622;25.416;2023-07-13T12:07:58;96788.28;;;37.21;25.91
45078;BME280;60508;42.622;25.416;2023-07-13T12:10:30;96793.44;;;37.26;26.58
45078;BME280;60508;42.622;25.416;2023-07-13T12:13:04;96799.50;;;37.17;26.70
45078;BME280;60508;42.622;25.416;2023-07-13T12:18:29;96786.44;;;37.07;26.99
45078;BME280;60508;42.622;25.416;2023-07-13T12:20:58;96775.97;;;37.11;27.01
45078;BME280;60508;42.622;25.416;2023-07-13T12:23:36;96780.63;;;37.25;26.22
45078;BME280;60508;42.622;25.416;2023-07-13T12:26:05;96772.09;;;37.32;27.28
45078;BME280;60508;42.622;25.416;2023-07-13T12:28:43;96773.88;;;37.50;26.29
45078;BME280;60508;42.622;25.416;2023-07-13T12:34:17;96757.72;;;37.30;26.21
45078;BME280;60508;42.622;25.416;2023-07-13T12:36:54;96761.13;;;37.45;26.55
45078;BME280;60508;42.622;25.416;2023-07-13T12:39:44;96766.38;;;37.70;26.24
45078;BME280;60508;42.622;25.416;2023-07-13T12:42:28;96767.69;;;37.62;26.06
45078;BME280;60508;42.622;25.416;2023-07-13T12:45:01;96759.00;;;37.53;26.82
45078;BME280;60508;42.622;25.416;2023-07-13T12:47:29;96746.09;;;37.59;26.25
45078;BME280;60508;42.622;25.416;2023-07-13T12:49:59;96751.72;;;37.59;25.80
45078;BME280;60508;42.622;25.416;2023-07-13T12:52:31;96747.38;;;37.54;25.91
45078;BME280;60508;42.622;25.416;2023-07-13T12:55:08;96729.34;;;37.55;25.75
45078;BME280;60508;42.622;25.416;2023-07-13T12:57:54;96736.06;;;37.61;25.35
45078;BME280;60508;42.622;25.416;2023-07-13T13:00:31;96737.56;;;37.66;25.97
45078;BME280;60508;42.622;25.416;2023-07-13T13:03:28;96737.03;;;37.78;26.28
45078;BME280;60508;42.622;25.416;2023-07-13T13:06:03;96725.94;;;37.71;26.09
45078;BME280;60508;42.622;25.416;2023-07-13T13:08:39;96711.56;;;37.66;25.96
45078;BME280;60508;42.622;25.416;2023-07-13T13:11:07;96729.78;;;37.54;26.28
45078;BME280;60508;42.622;25.416;2023-07-13T13:13:44;96711.56;;;37.66;26.21
45078;BME280;60508;42.622;25.416;2023-07-13T13:18:48;96706.97;;;37.79;25.87
45078;BME280;60508;42.622;25.416;2023-07-13T13:21:24;96709.94;;;37.92;26.04
45078;BME280;60508;42.622;25.416;2023-07-13T13:23:51;96709.97;;;38.15;25.44
45078;BME280;60508;42.622;25.416;2023-07-13T13:26:21;96713.66;;;38.09;25.39
45078;BME280;60508;42.622;25.416;2023-07-13T13:28:47;96708.38;;;38.14;25.52
45078;BME280;60508;42.622;25.416;2023-07-13T13:31:15;96712.06;;;38.08;25.14
45078;BME280;60508;42.622;25.416;2023-07-13T13:33:44;96712.72;;;37.95;25.20
45078;BME280;60508;42.622;25.416;2023-07-13T13:36:19;96707.13;;;37.92;24.95
45078;BME280;60508;42.622;25.416;2023-07-13T13:38:47;96703.84;;;38.21;24.76
45078;BME280;60508;42.622;25.416;2023-07-13T13:41:23;96708.00;;;38.36;24.71
45078;BME280;60508;42.622;25.416;2023-07-13T13:43:50;96696.84;;;38.52;24.55
45078;BME280;60508;42.622;25.416;2023-07-13T13:46:18;96702.63;;;38.65;24.74